createdAt,value
2022-10-20T00:00:05.962Z,0.00
2022-10-20T00:01:05.937Z,0.00
2022-10-20T00:02:05.927Z,0.00
2022-10-20T00:03:05.941Z,0.00
2022-10-20T00:04:05.886Z,0.00
2022-10-20T00:05:05.879Z,0.00
2022-10-20T00:06:05.866Z,0.00
2022-10-20T00:07:05.881Z,0.00
2022-10-20T00:08:05.852Z,0.00
2022-10-20T00:09:05.885Z,0.00
2022-10-20T00:10:05.826Z,0.00
2022-10-20T00:11:05.816Z,0.00
2022-10-20T00:12:05.803Z,0.00
2022-10-20T00:13:05.810Z,0.00
2022-10-20T00:14:05.780Z,0.00
2022-10-20T00:15:05.774Z,0.00
2022-10-20T00:16:05.796Z,0.00
2022-10-20T00:17:05.748Z,0.00
2022-10-20T00:18:05.753Z,0.00
2022-10-20T00:19:05.717Z,0.00
2022-10-20T00:20:05.806Z,0.00
2022-10-20T00:21:05.693Z,0.00
2022-10-20T00:22:05.728Z,0.00
2022-10-20T00:23:05.688Z,0.00
2022-10-20T00:24:05.667Z,0.00
2022-10-20T00:25:05.652Z,0.00
2022-10-20T00:26:05.659Z,0.00
2022-10-20T00:27:05.639Z,0.00
2022-10-20T00:28:05.622Z,0.00
2022-10-20T00:29:05.723Z,0.00
2022-10-20T00:30:05.601Z,0.00
2022-10-20T00:31:05.587Z,0.00
2022-10-20T00:32:05.610Z,0.00
2022-10-20T00:33:05.595Z,0.00
2022-10-20T00:34:05.581Z,0.00
2022-10-20T00:35:05.557Z,0.00
2022-10-20T00:36:05.524Z,0.00
2022-10-20T00:37:05.513Z,0.00
2022-10-20T00:38:05.567Z,0.00
2022-10-20T00:39:05.530Z,0.00
2022-10-20T00:40:05.480Z,0.00
2022-10-20T00:41:05.476Z,0.00
2022-10-20T00:42:05.469Z,0.00
2022-10-20T00:43:05.445Z,0.00
2022-10-20T00:44:05.442Z,0.00
2022-10-20T00:45:05.457Z,0.00
2022-10-20T00:46:05.423Z,0.00
2022-10-20T00:47:05.411Z,0.00
2022-10-20T00:48:05.401Z,0.00
2022-10-20T00:49:05.385Z,0.00
2022-10-20T00:50:05.374Z,0.00
2022-10-20T00:51:05.359Z,0.00
2022-10-20T00:52:05.377Z,0.00
2022-10-20T00:53:05.341Z,0.00
2022-10-20T00:54:05.330Z,0.00
2022-10-20T00:55:05.324Z,0.00
2022-10-20T00:56:05.331Z,0.00
2022-10-20T00:57:05.302Z,0.00
2022-10-20T00:58:05.282Z,0.00
2022-10-20T00:59:05.367Z,0.00
2022-10-20T01:00:05.256Z,0.00
2022-10-20T01:01:05.264Z,0.00
2022-10-20T01:02:05.326Z,0.00
2022-10-20T01:03:05.222Z,0.00
2022-10-20T01:04:05.212Z,0.00
2022-10-20T01:05:05.198Z,0.00
2022-10-20T01:06:05.255Z,0.00
2022-10-20T01:07:05.221Z,0.00
2022-10-20T01:08:05.193Z,0.00
2022-10-20T01:09:05.259Z,0.00
2022-10-20T01:10:05.222Z,0.00
2022-10-20T01:11:05.143Z,0.00
2022-10-20T01:12:05.135Z,0.00
2022-10-20T01:13:05.119Z,0.00
2022-10-20T01:14:05.101Z,0.00
2022-10-20T01:15:05.093Z,0.00
2022-10-20T01:16:05.103Z,0.00
2022-10-20T01:17:05.097Z,0.00
2022-10-20T01:18:05.071Z,0.00
2022-10-20T01:19:05.041Z,0.00
2022-10-20T01:20:05.043Z,0.00
2022-10-20T01:21:05.022Z,0.00
2022-10-20T01:22:05.029Z,0.00
2022-10-20T01:23:05.003Z,0.00
2022-10-20T01:24:05.002Z,0.00
2022-10-20T01:25:04.988Z,0.00
2022-10-20T01:26:04.962Z,0.00
2022-10-20T01:27:04.988Z,0.00
2022-10-20T01:28:04.951Z,0.00
2022-10-20T01:29:04.947Z,0.00
2022-10-20T01:30:04.936Z,0.00
2022-10-20T01:31:04.919Z,0.00
2022-10-20T01:32:04.902Z,0.00
2022-10-20T01:33:04.910Z,0.00
2022-10-20T01:34:04.879Z,0.00
2022-10-20T01:35:04.905Z,0.00
2022-10-20T01:36:04.887Z,0.00
2022-10-20T01:37:04.846Z,0.00
2022-10-20T01:38:04.829Z,0.00
2022-10-20T01:39:04.821Z,0.00
2022-10-20T01:40:04.840Z,0.00
2022-10-20T01:41:04.801Z,0.00
2022-10-20T01:42:04.790Z,0.00
2022-10-20T01:43:04.793Z,0.00
2022-10-20T01:44:04.773Z,0.00
2022-10-20T01:45:04.839Z,0.00
2022-10-20T01:46:04.735Z,0.00
2022-10-20T01:47:04.728Z,0.00
2022-10-20T01:48:04.731Z,0.00
2022-10-20T01:49:04.729Z,0.00
2022-10-20T01:50:04.710Z,0.00
2022-10-20T01:51:04.689Z,0.00
2022-10-20T01:52:04.674Z,0.00
2022-10-20T01:53:04.662Z,0.00
2022-10-20T01:54:04.651Z,0.00
2022-10-20T01:55:04.654Z,0.00
2022-10-20T01:56:04.645Z,0.00
2022-10-20T01:57:04.632Z,0.00
2022-10-20T01:58:04.607Z,0.00
2022-10-20T01:59:04.605Z,0.00
2022-10-20T02:00:04.586Z,0.00
2022-10-20T02:01:04.584Z,0.00
2022-10-20T02:02:04.565Z,0.00
2022-10-20T02:03:04.551Z,0.00
2022-10-20T02:04:04.544Z,0.00
2022-10-20T02:05:04.555Z,0.00
2022-10-20T02:06:04.531Z,0.00
2022-10-20T02:07:04.505Z,0.00
2022-10-20T02:08:04.512Z,0.00
2022-10-20T02:09:04.580Z,0.00
2022-10-20T02:10:04.533Z,0.00
2022-10-20T02:11:04.459Z,0.00
2022-10-20T02:12:04.457Z,0.00
2022-10-20T02:13:04.435Z,0.00
2022-10-20T02:14:04.432Z,0.00
2022-10-20T02:15:04.419Z,0.00
2022-10-20T02:16:04.399Z,0.00
2022-10-20T02:17:04.437Z,0.00
2022-10-20T02:18:04.374Z,0.00
2022-10-20T02:19:04.387Z,0.00
2022-10-20T02:20:04.363Z,0.00
2022-10-20T02:21:04.369Z,0.00
2022-10-20T02:22:04.329Z,0.00
2022-10-20T02:23:04.328Z,0.00
2022-10-20T02:24:04.319Z,0.00
2022-10-20T02:25:04.310Z,0.00
2022-10-20T02:26:04.294Z,0.00
2022-10-20T02:27:04.279Z,0.00
2022-10-20T02:28:04.280Z,0.00
2022-10-20T02:29:04.283Z,0.00
2022-10-20T02:30:04.250Z,0.00
2022-10-20T02:31:04.255Z,0.00
2022-10-20T02:32:04.227Z,0.00
2022-10-20T02:33:04.212Z,0.00
2022-10-20T02:34:04.202Z,0.00
2022-10-20T02:35:06.636Z,0.00
2022-10-20T02:36:04.184Z,0.00
2022-10-20T02:37:04.227Z,0.00
2022-10-20T02:38:04.166Z,0.00
2022-10-20T02:39:04.143Z,0.00
2022-10-20T02:40:04.160Z,0.00
2022-10-20T02:41:04.116Z,0.00
2022-10-20T02:42:04.105Z,0.00
2022-10-20T02:43:04.100Z,0.00
2022-10-20T02:44:04.084Z,0.00
2022-10-20T02:45:04.079Z,0.00
2022-10-20T02:46:04.179Z,0.00
2022-10-20T02:47:04.065Z,0.00
2022-10-20T02:48:06.259Z,0.00
2022-10-20T02:49:04.030Z,0.00
2022-10-20T02:50:04.018Z,0.00
2022-10-20T02:51:04.034Z,0.00
2022-10-20T02:52:04.020Z,0.00
2022-10-20T02:53:04.010Z,0.00
2022-10-20T02:54:03.980Z,0.00
2022-10-20T02:55:03.979Z,0.00
2022-10-20T02:56:03.956Z,0.00
2022-10-20T02:57:03.969Z,0.00
2022-10-20T02:58:03.928Z,0.00
2022-10-20T02:59:03.928Z,0.00
2022-10-20T03:00:03.915Z,0.00
2022-10-20T03:01:03.901Z,0.00
2022-10-20T03:02:03.957Z,0.00
2022-10-20T03:03:03.883Z,0.00
2022-10-20T03:04:03.879Z,0.00
2022-10-20T03:05:03.853Z,0.00
2022-10-20T03:06:03.948Z,0.00
2022-10-20T03:07:03.835Z,0.00
2022-10-20T03:08:03.869Z,0.00
2022-10-20T03:09:03.918Z,0.00
2022-10-20T03:10:03.821Z,0.00
2022-10-20T03:11:03.807Z,0.00
2022-10-20T03:12:03.800Z,0.00
2022-10-20T03:13:03.757Z,0.00
2022-10-20T03:14:03.751Z,0.00
2022-10-20T03:15:03.741Z,0.00
2022-10-20T03:16:03.736Z,0.00
2022-10-20T03:17:03.722Z,0.00
2022-10-20T03:18:03.714Z,0.00
2022-10-20T03:19:06.283Z,0.00
2022-10-20T03:20:03.686Z,0.00
2022-10-20T03:21:03.671Z,0.00
2022-10-20T03:22:03.675Z,0.00
2022-10-20T03:23:03.652Z,0.00
2022-10-20T03:24:03.629Z,0.00
2022-10-20T03:25:03.651Z,0.00
2022-10-20T03:26:03.633Z,0.00
2022-10-20T03:27:03.644Z,0.00
2022-10-20T03:28:03.610Z,0.00
2022-10-20T03:29:03.592Z,0.00
2022-10-20T03:30:03.564Z,0.00
2022-10-20T03:31:03.578Z,0.00
2022-10-20T03:32:03.560Z,0.00
2022-10-20T03:33:03.529Z,0.00
2022-10-20T03:34:03.534Z,0.00
2022-10-20T03:35:03.509Z,0.00
2022-10-20T03:36:03.562Z,0.00
2022-10-20T03:37:03.490Z,0.00
2022-10-20T03:38:03.478Z,0.00
2022-10-20T03:39:03.489Z,0.00
2022-10-20T03:40:03.455Z,0.00
2022-10-20T03:41:03.476Z,0.00
2022-10-20T03:42:03.435Z,0.00
2022-10-20T03:43:03.430Z,0.00
2022-10-20T03:44:03.411Z,0.00
2022-10-20T03:45:03.460Z,0.00
2022-10-20T03:46:03.409Z,0.00
2022-10-20T03:47:03.392Z,0.00
2022-10-20T03:48:03.372Z,0.00
2022-10-20T03:49:03.359Z,0.00
2022-10-20T03:51:03.351Z,0.00
2022-10-20T03:52:03.319Z,0.00
2022-10-20T03:53:03.313Z,0.00
2022-10-20T03:54:03.336Z,0.00
2022-10-20T03:55:03.282Z,0.00
2022-10-20T03:56:03.268Z,0.00
2022-10-20T03:57:06.869Z,0.00
2022-10-20T03:58:03.247Z,0.00
2022-10-20T04:00:03.233Z,0.00
2022-10-20T04:01:03.215Z,0.00
2022-10-20T04:02:03.318Z,0.00
2022-10-20T04:03:03.213Z,0.00
2022-10-20T04:04:03.185Z,0.00
2022-10-20T04:05:03.195Z,0.00
2022-10-20T04:06:03.164Z,0.00
2022-10-20T04:07:03.152Z,0.00
2022-10-20T04:08:03.226Z,0.00
2022-10-20T04:09:03.205Z,0.00
2022-10-20T04:10:03.130Z,0.00
2022-10-20T04:11:03.129Z,0.00
2022-10-20T04:12:03.098Z,0.00
2022-10-20T04:13:03.110Z,0.00
2022-10-20T04:14:03.075Z,0.00
2022-10-20T04:15:03.056Z,0.00
2022-10-20T04:16:03.047Z,0.00
2022-10-20T04:17:03.044Z,0.00
2022-10-20T04:18:03.031Z,0.00
2022-10-20T04:19:03.654Z,0.00
2022-10-20T04:20:03.028Z,0.00
2022-10-20T04:21:03.010Z,0.00
2022-10-20T04:22:03.009Z,0.00
2022-10-20T04:23:02.969Z,0.00
2022-10-20T04:24:02.955Z,0.00
2022-10-20T04:25:02.956Z,0.00
2022-10-20T04:26:02.956Z,0.00
2022-10-20T04:27:02.934Z,0.00
2022-10-20T04:28:02.919Z,0.00
2022-10-20T04:29:02.927Z,0.00
2022-10-20T04:30:02.893Z,0.00
2022-10-20T04:31:02.876Z,0.00
2022-10-20T04:32:02.883Z,0.00
2022-10-20T04:33:02.871Z,0.00
2022-10-20T04:34:02.851Z,0.00
2022-10-20T04:35:02.832Z,0.00
2022-10-20T04:36:02.830Z,0.00
2022-10-20T04:37:02.825Z,0.00
2022-10-20T04:38:02.814Z,0.00
2022-10-20T04:39:02.807Z,0.00
2022-10-20T04:40:02.785Z,0.00
2022-10-20T04:41:04.151Z,0.00
2022-10-20T04:42:02.753Z,0.00
2022-10-20T04:43:02.749Z,0.00
2022-10-20T04:44:02.734Z,0.00
2022-10-20T04:45:02.752Z,0.00
2022-10-20T04:46:05.453Z,0.00
2022-10-20T04:47:03.725Z,0.00
2022-10-20T04:48:02.694Z,0.00
2022-10-20T04:49:02.688Z,0.00
2022-10-20T04:50:02.665Z,0.00
2022-10-20T04:51:02.660Z,0.00
2022-10-20T04:52:02.651Z,0.00
2022-10-20T04:53:02.638Z,0.00
2022-10-20T04:54:02.749Z,0.00
2022-10-20T04:55:02.616Z,0.00
2022-10-20T04:56:02.611Z,0.00
2022-10-20T04:57:02.595Z,0.00
2022-10-20T04:58:02.611Z,0.00
2022-10-20T04:59:02.560Z,0.00
2022-10-20T05:00:02.558Z,0.00
2022-10-20T05:01:02.618Z,0.00
2022-10-20T05:02:02.690Z,0.00
2022-10-20T05:03:02.560Z,0.00
2022-10-20T05:04:02.531Z,0.00
2022-10-20T05:05:02.562Z,0.00
2022-10-20T05:06:02.499Z,0.00
2022-10-20T05:07:02.493Z,0.00
2022-10-20T05:08:02.466Z,0.00
2022-10-20T05:09:02.565Z,0.00
2022-10-20T05:10:02.466Z,0.00
2022-10-20T05:11:02.461Z,0.00
2022-10-20T05:12:02.544Z,0.00
2022-10-20T05:13:02.405Z,0.00
2022-10-20T05:14:02.469Z,0.00
2022-10-20T05:15:02.409Z,0.00
2022-10-20T05:16:02.381Z,0.00
2022-10-20T05:17:04.219Z,0.00
2022-10-20T05:18:02.354Z,0.00
2022-10-20T05:19:02.353Z,0.00
2022-10-20T05:20:02.361Z,0.00
2022-10-20T05:21:08.940Z,0.00
2022-10-20T05:22:03.352Z,0.00
2022-10-20T05:23:02.296Z,0.00
2022-10-20T05:24:02.319Z,0.00
2022-10-20T05:25:24.413Z,0.00
2022-10-20T05:26:03.277Z,0.00
2022-10-20T05:27:02.266Z,0.00
2022-10-20T05:28:02.243Z,0.00
2022-10-20T05:29:02.260Z,0.00
2022-10-20T05:30:02.239Z,0.00
2022-10-20T05:31:02.224Z,0.00
2022-10-20T05:32:02.192Z,0.00
2022-10-20T05:33:02.211Z,4.00
2022-10-20T05:34:02.194Z,4.00
2022-10-20T05:35:02.277Z,0.00
2022-10-20T05:36:02.161Z,0.00
2022-10-20T05:37:02.144Z,4.00
2022-10-20T05:38:02.206Z,4.00
2022-10-20T05:39:02.139Z,4.00
2022-10-20T05:40:02.133Z,4.00
2022-10-20T05:41:02.117Z,4.00
2022-10-20T05:42:02.094Z,8.00
2022-10-20T05:43:02.088Z,8.00
2022-10-20T05:44:02.074Z,12.00
2022-10-20T05:45:02.053Z,12.00
2022-10-20T05:46:02.056Z,16.00
2022-10-20T05:47:02.041Z,16.00
2022-10-20T05:48:02.024Z,16.00
2022-10-20T05:49:02.043Z,24.00
2022-10-20T05:50:02.017Z,28.00
2022-10-20T05:51:01.985Z,32.00
2022-10-20T05:52:01.980Z,36.00
2022-10-20T05:53:01.989Z,40.00
2022-10-20T05:54:01.971Z,44.00
2022-10-20T05:55:01.964Z,48.00
2022-10-20T05:56:01.919Z,56.00
2022-10-20T05:57:01.951Z,60.00
2022-10-20T05:58:01.935Z,64.00
2022-10-20T05:59:02.405Z,76.00
2022-10-20T06:00:01.876Z,80.00
2022-10-20T06:01:01.918Z,88.00
2022-10-20T06:02:01.872Z,92.00
2022-10-20T06:03:01.861Z,100.00
2022-10-20T06:04:01.848Z,108.00
2022-10-20T06:05:01.859Z,116.00
2022-10-20T06:06:01.811Z,124.00
2022-10-20T06:07:01.866Z,136.00
2022-10-20T06:08:01.803Z,144.00
2022-10-20T06:09:01.817Z,160.00
2022-10-20T06:10:01.770Z,172.00
2022-10-20T06:11:01.760Z,188.00
2022-10-20T06:12:01.819Z,208.00
2022-10-20T06:13:02.373Z,224.00
2022-10-20T06:14:01.744Z,244.00
2022-10-20T06:15:01.729Z,264.00
2022-10-20T06:16:01.753Z,284.00
2022-10-20T06:17:01.711Z,304.00
2022-10-20T06:18:01.714Z,328.00
2022-10-20T06:19:01.756Z,348.00
2022-10-20T06:20:01.649Z,372.00
2022-10-20T06:21:01.844Z,396.00
2022-10-20T06:22:05.467Z,420.00
2022-10-20T06:23:02.639Z,440.00
2022-10-20T06:24:01.630Z,464.00
2022-10-20T06:25:01.603Z,488.00
2022-10-20T06:26:01.621Z,512.00
2022-10-20T06:27:01.592Z,536.00
2022-10-20T06:28:01.611Z,560.00
2022-10-20T06:29:04.677Z,580.00
2022-10-20T06:30:01.596Z,600.00
2022-10-20T06:31:01.559Z,620.00
2022-10-20T06:32:01.586Z,644.00
2022-10-20T06:33:01.525Z,664.00
2022-10-20T06:34:01.499Z,688.00
2022-10-20T06:35:01.534Z,708.00
2022-10-20T06:36:01.500Z,732.00
2022-10-20T06:37:01.516Z,756.00
2022-10-20T06:38:01.471Z,784.00
2022-10-20T06:39:01.440Z,808.00
2022-10-20T06:40:01.479Z,836.00
2022-10-20T06:41:01.435Z,864.00
2022-10-20T06:42:01.412Z,892.00
2022-10-20T06:43:01.405Z,920.00
2022-10-20T06:44:01.382Z,952.00
2022-10-20T06:45:01.695Z,988.00
2022-10-20T06:46:01.384Z,1020.00
2022-10-20T06:47:01.380Z,1048.00
2022-10-20T06:48:01.372Z,1084.00
2022-10-20T06:49:01.327Z,1124.00
2022-10-20T06:50:01.359Z,1156.00
2022-10-20T06:51:01.318Z,1196.00
2022-10-20T06:52:01.406Z,1236.00
2022-10-20T06:53:01.326Z,1276.00
2022-10-20T06:54:01.379Z,1316.00
2022-10-20T06:55:01.301Z,1352.00
2022-10-20T06:56:01.262Z,1392.00
2022-10-20T06:57:01.257Z,1424.00
2022-10-20T06:58:01.267Z,1456.00
2022-10-20T06:59:01.257Z,1488.00
2022-10-20T07:00:01.224Z,1516.00
2022-10-20T07:01:02.598Z,1536.00
2022-10-20T07:02:01.312Z,1548.00
2022-10-20T07:03:01.175Z,1564.00
2022-10-20T07:04:01.200Z,1576.00
2022-10-20T07:05:01.164Z,1592.00
2022-10-20T07:06:01.144Z,1608.00
2022-10-20T07:07:01.153Z,1628.00
2022-10-20T07:08:01.113Z,1648.00
2022-10-20T07:09:01.177Z,1664.00
2022-10-20T07:10:01.109Z,1688.00
2022-10-20T07:11:01.092Z,1724.00
2022-10-20T07:12:01.074Z,1752.00
2022-10-20T07:13:01.071Z,1792.00
2022-10-20T07:14:01.073Z,1840.00
2022-10-20T07:15:01.091Z,1896.00
2022-10-20T07:16:01.032Z,1964.00
2022-10-20T07:17:01.013Z,2036.00
2022-10-20T07:18:00.998Z,2116.00
2022-10-20T07:19:01.831Z,2208.00
2022-10-20T07:20:01.093Z,2300.00
2022-10-20T07:21:00.972Z,2396.00
2022-10-20T07:22:00.954Z,2500.00
2022-10-20T07:23:00.960Z,2596.00
2022-10-20T07:24:01.070Z,2696.00
2022-10-20T07:25:00.974Z,2788.00
2022-10-20T07:26:00.969Z,2876.00
2022-10-20T07:27:00.898Z,2956.00
2022-10-20T07:28:00.922Z,3028.00
2022-10-20T07:29:00.890Z,3092.00
2022-10-20T07:30:00.895Z,3156.00
2022-10-20T07:31:00.857Z,3212.00
2022-10-20T07:32:02.083Z,3268.00
2022-10-20T07:33:00.861Z,3320.00
2022-10-20T07:34:13.402Z,3360.00
2022-10-20T07:35:01.866Z,3396.00
2022-10-20T07:36:00.814Z,3432.00
2022-10-20T07:37:00.812Z,3460.00
2022-10-20T07:38:00.818Z,3480.00
2022-10-20T07:39:00.820Z,3492.00
2022-10-20T07:40:00.766Z,3500.00
2022-10-20T07:41:01.631Z,3520.00
2022-10-20T07:42:00.750Z,3544.00
2022-10-20T07:43:00.739Z,3564.00
2022-10-20T07:44:00.725Z,3584.00
2022-10-20T07:45:00.701Z,3608.00
2022-10-20T07:46:00.698Z,3636.00
2022-10-20T07:47:00.726Z,3676.00
2022-10-20T07:48:00.690Z,3720.00
2022-10-20T07:49:23.937Z,3764.00
2022-10-20T07:50:01.650Z,3820.00
2022-10-20T07:51:00.644Z,3868.00
2022-10-20T07:52:00.653Z,3900.00
2022-10-20T07:53:00.640Z,3940.00
2022-10-20T07:54:00.783Z,3976.00
2022-10-20T07:55:12.257Z,4000.00
2022-10-20T07:56:01.587Z,4016.00
2022-10-20T07:57:00.633Z,4012.00
2022-10-20T07:58:00.572Z,3992.00
2022-10-20T07:59:00.541Z,3956.00
2022-10-20T08:00:00.529Z,3920.00
2022-10-20T08:01:00.570Z,3888.00
2022-10-20T08:02:00.859Z,3840.00
2022-10-20T08:03:00.532Z,3780.00
2022-10-20T08:04:00.493Z,3716.00
2022-10-20T08:05:00.473Z,3672.00
2022-10-20T08:06:00.461Z,3664.00
2022-10-20T08:07:00.512Z,3696.00
2022-10-20T08:08:00.458Z,3764.00
2022-10-20T08:09:00.534Z,3852.00
2022-10-20T08:10:00.421Z,3956.00
2022-10-20T08:11:00.417Z,4028.00
2022-10-20T08:12:00.418Z,4076.00
2022-10-20T08:13:00.499Z,4084.00
2022-10-20T08:14:00.402Z,4040.00
2022-10-20T08:15:02.329Z,3980.00
2022-10-20T08:16:00.370Z,3916.00
2022-10-20T08:17:01.819Z,3868.00
2022-10-20T08:18:00.393Z,3820.00
2022-10-20T08:19:01.326Z,3792.00
2022-10-20T08:20:02.821Z,3780.00
2022-10-20T08:21:00.300Z,3792.00
2022-10-20T08:22:00.300Z,3824.00
2022-10-20T08:23:00.342Z,3812.00
2022-10-20T08:24:00.265Z,3832.00
2022-10-20T08:25:00.271Z,3880.00
2022-10-20T08:26:00.239Z,3936.00
2022-10-20T08:27:00.858Z,3960.00
2022-10-20T08:28:00.396Z,3920.00
2022-10-20T08:29:00.250Z,3812.00
2022-10-20T08:30:19.132Z,3640.00
2022-10-20T08:31:01.201Z,3416.00
2022-10-20T08:32:00.185Z,3192.00
2022-10-20T08:33:00.211Z,2992.00
2022-10-20T08:34:00.166Z,2816.00
2022-10-20T08:35:00.144Z,2664.00
2022-10-20T08:36:00.167Z,2536.00
2022-10-20T08:37:00.131Z,2424.00
2022-10-20T08:38:00.562Z,2332.00
2022-10-20T08:39:03.520Z,2260.00
2022-10-20T08:40:01.083Z,2212.00
2022-10-20T08:41:00.121Z,2188.00
2022-10-20T08:42:08.439Z,2196.00
2022-10-20T08:43:01.052Z,2236.00
2022-10-20T08:44:00.037Z,2312.00
2022-10-20T08:45:00.054Z,2408.00
2022-10-20T08:46:00.033Z,2524.00
2022-10-20T08:47:00.022Z,2648.00
2022-10-20T08:47:59.997Z,2812.00
2022-10-20T08:49:00.101Z,2976.00
2022-10-20T08:50:00.044Z,3164.00
2022-10-20T08:50:59.968Z,3356.00
2022-10-20T08:51:59.959Z,3556.00
2022-10-20T08:53:00.021Z,3712.00
2022-10-20T08:53:59.942Z,3792.00
2022-10-20T08:54:59.911Z,3784.00
2022-10-20T08:55:59.917Z,3708.00
2022-10-20T08:57:00.028Z,3584.00
2022-10-20T08:57:59.890Z,3424.00
2022-10-20T08:58:59.880Z,3296.00
2022-10-20T08:59:59.889Z,3188.00
2022-10-20T09:00:59.874Z,3072.00
2022-10-20T09:01:59.885Z,2960.00
2022-10-20T09:02:59.855Z,2808.00
2022-10-20T09:03:59.823Z,2608.00
2022-10-20T09:04:59.890Z,2388.00
2022-10-20T09:05:59.807Z,2156.00
2022-10-20T09:06:59.899Z,2028.00
2022-10-20T09:07:59.798Z,1964.00
2022-10-20T09:08:59.883Z,1952.00
2022-10-20T09:09:59.771Z,1972.00
2022-10-20T09:10:59.743Z,2008.00
2022-10-20T09:11:59.716Z,2048.00
2022-10-20T09:12:59.725Z,2084.00
2022-10-20T09:13:59.701Z,2120.00
2022-10-20T09:14:59.695Z,2168.00
2022-10-20T09:15:59.679Z,2208.00
2022-10-20T09:17:01.011Z,2252.00
2022-10-20T09:17:59.707Z,2292.00
2022-10-20T09:18:59.668Z,2308.00
2022-10-20T09:19:59.704Z,2316.00
2022-10-20T09:20:59.619Z,2324.00
2022-10-20T09:21:59.675Z,2344.00
2022-10-20T09:23:04.067Z,2392.00
2022-10-20T09:23:59.639Z,2464.00
2022-10-20T09:24:59.578Z,2572.00
2022-10-20T09:25:59.571Z,2696.00
2022-10-20T09:27:00.219Z,2828.00
2022-10-20T09:27:59.572Z,2956.00
2022-10-20T09:29:12.463Z,3064.00
2022-10-20T09:30:00.563Z,3152.00
2022-10-20T09:30:59.513Z,3236.00
2022-10-20T09:32:06.902Z,3304.00
2022-10-20T09:33:01.061Z,3324.00
2022-10-20T09:33:59.488Z,3308.00
2022-10-20T09:34:59.476Z,3276.00
2022-10-20T09:35:59.456Z,3264.00
2022-10-20T09:36:59.477Z,3260.00
2022-10-20T09:37:59.458Z,3260.00
2022-10-20T09:38:59.428Z,3224.00
2022-10-20T09:39:59.427Z,3140.00
2022-10-20T09:40:59.400Z,3032.00
2022-10-20T09:41:59.482Z,2908.00
2022-10-20T09:42:59.434Z,2776.00
2022-10-20T09:43:59.381Z,2644.00
2022-10-20T09:44:59.352Z,2496.00
2022-10-20T09:45:59.344Z,2344.00
2022-10-20T09:46:59.337Z,2208.00
2022-10-20T09:47:59.335Z,2116.00
2022-10-20T09:48:59.366Z,2084.00
2022-10-20T09:50:00.967Z,2100.00
2022-10-20T09:50:59.393Z,2156.00
2022-10-20T09:51:59.281Z,2244.00
2022-10-20T09:52:59.303Z,2392.00
2022-10-20T09:53:59.264Z,2572.00
2022-10-20T09:54:59.246Z,2756.00
2022-10-20T09:55:59.240Z,2940.00
2022-10-20T09:56:59.214Z,3120.00
2022-10-20T09:57:59.217Z,3284.00
2022-10-20T09:58:59.211Z,3428.00
2022-10-20T10:00:04.560Z,3544.00
2022-10-20T10:01:00.262Z,3660.00
2022-10-20T10:01:59.190Z,3760.00
2022-10-20T10:02:59.190Z,3800.00
2022-10-20T10:03:59.134Z,3780.00
2022-10-20T10:04:59.148Z,3756.00
2022-10-20T10:05:59.126Z,3768.00
2022-10-20T10:06:59.132Z,3840.00
2022-10-20T10:07:59.125Z,3904.00
2022-10-20T10:08:59.160Z,3920.00
2022-10-20T10:10:01.309Z,3856.00
2022-10-20T10:10:59.067Z,3716.00
2022-10-20T10:11:59.079Z,3552.00
2022-10-20T10:12:59.073Z,3428.00
2022-10-20T10:13:59.026Z,3380.00
2022-10-20T10:14:59.080Z,3336.00
2022-10-20T10:15:59.033Z,3260.00
2022-10-20T10:16:59.003Z,3168.00
2022-10-20T10:18:00.841Z,3084.00
2022-10-20T10:18:58.998Z,3036.00
2022-10-20T10:19:58.979Z,3032.00
2022-10-20T10:20:58.992Z,3076.00
2022-10-20T10:21:58.937Z,3184.00
2022-10-20T10:22:58.919Z,3336.00
2022-10-20T10:23:58.918Z,3464.00
2022-10-20T10:24:58.954Z,3520.00
2022-10-20T10:26:02.026Z,3484.00
2022-10-20T10:26:58.888Z,3392.00
2022-10-20T10:27:59.369Z,3280.00
2022-10-20T10:28:58.880Z,3180.00
2022-10-20T10:29:58.903Z,3108.00
2022-10-20T10:30:58.853Z,3048.00
2022-10-20T10:31:58.947Z,3016.00
2022-10-20T10:32:58.812Z,2988.00
2022-10-20T10:33:58.825Z,2948.00
2022-10-20T10:34:58.854Z,2884.00
2022-10-20T10:35:58.885Z,2800.00
2022-10-20T10:36:58.822Z,2664.00
2022-10-20T10:37:58.763Z,2488.00
2022-10-20T10:38:58.782Z,2336.00
2022-10-20T10:39:58.755Z,2216.00
2022-10-20T10:40:58.726Z,2100.00
2022-10-20T10:41:58.733Z,1988.00
2022-10-20T10:42:58.699Z,1884.00
2022-10-20T10:43:58.762Z,1812.00
2022-10-20T10:44:58.714Z,1776.00
2022-10-20T10:45:58.681Z,1772.00
2022-10-20T10:46:58.653Z,1808.00
2022-10-20T10:47:58.651Z,1864.00
2022-10-20T10:48:58.665Z,1924.00
2022-10-20T10:49:58.656Z,1972.00
2022-10-20T10:50:58.619Z,2012.00
2022-10-20T10:51:58.607Z,2056.00
2022-10-20T10:52:58.641Z,2104.00
2022-10-20T10:53:58.608Z,2148.00
2022-10-20T10:54:58.591Z,2188.00
2022-10-20T10:55:58.654Z,2220.00
2022-10-20T10:56:58.549Z,2212.00
2022-10-20T10:57:58.549Z,2184.00
2022-10-20T10:58:58.541Z,2164.00
2022-10-20T10:59:58.515Z,2148.00
2022-10-20T11:00:58.583Z,2136.00
2022-10-20T11:01:58.486Z,2132.00
2022-10-20T11:02:58.517Z,2152.00
2022-10-20T11:03:58.510Z,2192.00
2022-10-20T11:04:58.534Z,2220.00
2022-10-20T11:05:58.445Z,2224.00
2022-10-20T11:06:58.466Z,2228.00
2022-10-20T11:07:58.452Z,2244.00
2022-10-20T11:08:58.526Z,2288.00
2022-10-20T11:09:58.424Z,2344.00
2022-10-20T11:10:58.423Z,2392.00
2022-10-20T11:11:58.881Z,2408.00
2022-10-20T11:12:58.400Z,2388.00
2022-10-20T11:13:58.428Z,2376.00
2022-10-20T11:14:58.383Z,2360.00
2022-10-20T11:15:58.349Z,2356.00
2022-10-20T11:16:58.337Z,2348.00
2022-10-20T11:17:58.355Z,2336.00
2022-10-20T11:18:58.309Z,2328.00
2022-10-20T11:19:58.296Z,2324.00
2022-10-20T11:20:58.313Z,2304.00
2022-10-20T11:21:58.305Z,2280.00
2022-10-20T11:22:58.287Z,2276.00
2022-10-20T11:23:58.285Z,2244.00
2022-10-20T11:24:58.277Z,2196.00
2022-10-20T11:25:58.255Z,2204.00
2022-10-20T11:26:58.247Z,2260.00
2022-10-20T11:27:58.235Z,2352.00
2022-10-20T11:28:58.249Z,2396.00
2022-10-20T11:29:58.185Z,2420.00
2022-10-20T11:30:58.167Z,2412.00
2022-10-20T11:31:58.191Z,2396.00
2022-10-20T11:32:58.155Z,2392.00
2022-10-20T11:33:58.137Z,2400.00
2022-10-20T11:34:58.155Z,2424.00
2022-10-20T11:35:58.124Z,2464.00
2022-10-20T11:36:58.133Z,2488.00
2022-10-20T11:37:58.127Z,2492.00
2022-10-20T11:38:58.097Z,2488.00
2022-10-20T11:39:58.093Z,2472.00
2022-10-20T11:40:58.091Z,2436.00
2022-10-20T11:41:58.068Z,2400.00
2022-10-20T11:42:58.086Z,2360.00
2022-10-20T11:43:58.027Z,2316.00
2022-10-20T11:44:58.031Z,2260.00
2022-10-20T11:45:58.009Z,2208.00
2022-10-20T11:46:58.007Z,2188.00
2022-10-20T11:47:58.141Z,2184.00
2022-10-20T11:49:00.392Z,2200.00
2022-10-20T11:49:58.998Z,2212.00
2022-10-20T11:50:57.994Z,2196.00
2022-10-20T11:51:57.943Z,2148.00
2022-10-20T11:52:57.930Z,2072.00
2022-10-20T11:53:57.917Z,1988.00
2022-10-20T11:54:57.912Z,1920.00
2022-10-20T11:55:57.911Z,1876.00
2022-10-20T11:56:57.931Z,1848.00
2022-10-20T11:58:00.423Z,1764.00
2022-10-20T11:58:57.887Z,1640.00
2022-10-20T11:59:57.858Z,1568.00
2022-10-20T12:00:59.658Z,1608.00
2022-10-20T12:01:57.882Z,1744.00
2022-10-20T12:02:57.849Z,1860.00
2022-10-20T12:03:57.814Z,1896.00
2022-10-20T12:04:57.801Z,1844.00
2022-10-20T12:05:57.807Z,1788.00
2022-10-20T12:06:57.783Z,1772.00
2022-10-20T12:08:11.335Z,1800.00
2022-10-20T12:08:58.808Z,1864.00
2022-10-20T12:09:57.779Z,1928.00
2022-10-20T12:10:57.731Z,1988.00
2022-10-20T12:11:57.769Z,2048.00
2022-10-20T12:12:57.726Z,2188.00
2022-10-20T12:13:57.765Z,2408.00
2022-10-20T12:14:57.708Z,2672.00
2022-10-20T12:15:57.677Z,2840.00
2022-10-20T12:16:57.673Z,2844.00
2022-10-20T12:17:57.674Z,2704.00
2022-10-20T12:18:57.698Z,2508.00
2022-10-20T12:19:57.670Z,2304.00
2022-10-20T12:20:57.636Z,2076.00
2022-10-20T12:21:57.626Z,1872.00
2022-10-20T12:22:57.594Z,1780.00
2022-10-20T12:23:57.589Z,1764.00
2022-10-20T12:24:57.898Z,1788.00
2022-10-20T12:25:57.565Z,1808.00
2022-10-20T12:26:57.544Z,1804.00
2022-10-20T12:27:57.575Z,1776.00
2022-10-20T12:28:57.597Z,1772.00
2022-10-20T12:29:57.542Z,1828.00
2022-10-20T12:30:57.540Z,1956.00
2022-10-20T12:31:57.488Z,2140.00
2022-10-20T12:32:58.358Z,2328.00
2022-10-20T12:33:57.497Z,2536.00
2022-10-20T12:34:57.467Z,2836.00
2022-10-20T12:35:57.453Z,3184.00
2022-10-20T12:36:57.487Z,3504.00
2022-10-20T12:37:57.436Z,3708.00
2022-10-20T12:38:57.432Z,3824.00
2022-10-20T12:39:57.422Z,3884.00
2022-10-20T12:40:57.397Z,3920.00